sensor_id;sensor_type;location;lat;lon;timestamp;temperature;humidity
53254;DHT22;39148;53.332;6.922;2023-05-07T00:00:03;15.80;86.50
53254;DHT22;39148;53.332;6.922;2023-05-07T00:04:59;15.80;86.60
53254;DHT22;39148;53.332;6.922;2023-05-07T00:07:24;15.80;86.90
53254;DHT22;39148;53.332;6.922;2023-05-07T00:09:50;15.60;88.00
53254;DHT22;39148;53.332;6.922;2023-05-07T00:12:16;15.80;88.40
53254;DHT22;39148;53.332;6.922;2023-05-07T00:14:41;15.70;88.70
53254;DHT22;39148;53.332;6.922;2023-05-07T00:17:07;15.60;88.80
53254;DHT22;39148;53.332;6.922;2023-05-07T00:19:33;15.60;88.80
53254;DHT22;39148;53.332;6.922;2023-05-07T00:26:51;15.60;88.90
53254;DHT22;39148;53.332;6.922;2023-05-07T00:36:36;15.50;88.90
53254;DHT22;39148;53.332;6.922;2023-05-07T00:41:29;15.60;87.60
53254;DHT22;39148;53.332;6.922;2023-05-07T00:46:23;15.50;89.00
53254;DHT22;39148;53.332;6.922;2023-05-07T00:48:50;15.60;89.00
53254;DHT22;39148;53.332;6.922;2023-05-07T00:51:17;15.50;89.00
53254;DHT22;39148;53.332;6.922;2023-05-07T00:53:43;15.50;87.30
53254;DHT22;39148;53.332;6.922;2023-05-07T00:56:10;15.50;86.80
53254;DHT22;39148;53.332;6.922;2023-05-07T00:58:36;15.50;86.70
53254;DHT22;39148;53.332;6.922;2023-05-07T01:01:02;15.60;89.10
53254;DHT22;39148;53.332;6.922;2023-05-07T01:05:56;15.50;87.00
53254;DHT22;39148;53.332;6.922;2023-05-07T01:08:23;15.40;87.00
53254;DHT22;39148;53.332;6.922;2023-05-07T01:10:52;15.40;87.00
53254;DHT22;39148;53.332;6.922;2023-05-07T01:13:19;15.40;87.00
53254;DHT22;39148;53.332;6.922;2023-05-07T01:15:44;15.40;89.10
53254;DHT22;39148;53.332;6.922;2023-05-07T01:20:36;15.30;88.90
53254;DHT22;39148;53.332;6.922;2023-05-07T01:23:03;15.50;89.10
53254;DHT22;39148;53.332;6.922;2023-05-07T01:25:29;15.40;89.00
53254;DHT22;39148;53.332;6.922;2023-05-07T01:27:56;15.40;89.10
53254;DHT22;39148;53.332;6.922;2023-05-07T01:30:22;15.20;87.30
53254;DHT22;39148;53.332;6.922;2023-05-07T01:33:06;15.50;87.70
53254;DHT22;39148;53.332;6.922;2023-05-07T01:35:39;15.40;86.20
53254;DHT22;39148;53.332;6.922;2023-05-07T01:38:06;15.20;86.50
53254;DHT22;39148;53.332;6.922;2023-05-07T01:40:33;15.50;87.30
53254;DHT22;39148;53.332;6.922;2023-05-07T01:45:25;15.30;89.20
53254;DHT22;39148;53.332;6.922;2023-05-07T01:47:52;15.40;87.30
53254;DHT22;39148;53.332;6.922;2023-05-07T01:50:19;15.20;88.40
53254;DHT22;39148;53.332;6.922;2023-05-07T01:52:46;15.20;87.70
53254;DHT22;39148;53.332;6.922;2023-05-07T01:55:12;15.40;88.00
53254;DHT22;39148;53.332;6.922;2023-05-07T02:00:05;15.40;86.70
53254;DHT22;39148;53.332;6.922;2023-05-07T02:04:58;15.30;87.30
53254;DHT22;39148;53.332;6.922;2023-05-07T02:07:23;15.30;89.30
53254;DHT22;39148;53.332;6.922;2023-05-07T02:09:49;15.30;89.30
53254;DHT22;39148;53.332;6.922;2023-05-07T02:14:41;15.30;87.10
53254;DHT22;39148;53.332;6.922;2023-05-07T02:17:07;15.20;88.80
53254;DHT22;39148;53.332;6.922;2023-05-07T02:19:33;15.20;89.20
53254;DHT22;39148;53.332;6.922;2023-05-07T02:21:58;15.20;89.30
53254;DHT22;39148;53.332;6.922;2023-05-07T02:24:24;15.20;89.30
53254;DHT22;39148;53.332;6.922;2023-05-07T02:26:50;15.10;89.20
53254;DHT22;39148;53.332;6.922;2023-05-07T02:29:15;15.20;89.30
53254;DHT22;39148;53.332;6.922;2023-05-07T02:31:41;15.00;89.20
53254;DHT22;39148;53.332;6.922;2023-05-07T02:34:07;15.10;89.20
53254;DHT22;39148;53.332;6.922;2023-05-07T02:36:32;15.10;89.30
53254;DHT22;39148;53.332;6.922;2023-05-07T02:38:58;15.10;89.30
53254;DHT22;39148;53.332;6.922;2023-05-07T02:43:50;15.10;89.10
53254;DHT22;39148;53.332;6.922;2023-05-07T02:46:15;15.20;89.40
53254;DHT22;39148;53.332;6.922;2023-05-07T02:48:41;15.00;89.30
53254;DHT22;39148;53.332;6.922;2023-05-07T02:53:33;15.10;88.70
53254;DHT22;39148;53.332;6.922;2023-05-07T02:56:01;15.00;89.30
53254;DHT22;39148;53.332;6.922;2023-05-07T02:58:28;15.10;86.90
53254;DHT22;39148;53.332;6.922;2023-05-07T03:00:54;15.10;88.90
53254;DHT22;39148;53.332;6.922;2023-05-07T03:05:48;15.00;89.30
53254;DHT22;39148;53.332;6.922;2023-05-07T03:10:40;15.10;87.70
53254;DHT22;39148;53.332;6.922;2023-05-07T03:13:06;15.20;89.30
53254;DHT22;39148;53.332;6.922;2023-05-07T03:15:32;15.10;89.40
53254;DHT22;39148;53.332;6.922;2023-05-07T03:17:57;15.00;89.40
53254;DHT22;39148;53.332;6.922;2023-05-07T03:20:23;14.90;89.30
53254;DHT22;39148;53.332;6.922;2023-05-07T03:25:15;14.90;88.30
53254;DHT22;39148;53.332;6.922;2023-05-07T03:27:41;15.00;89.40
53254;DHT22;39148;53.332;6.922;2023-05-07T03:30:10;15.00;89.40
53254;DHT22;39148;53.332;6.922;2023-05-07T03:32:36;15.00;89.50
53254;DHT22;39148;53.332;6.922;2023-05-07T03:37:28;14.90;88.60
53254;DHT22;39148;53.332;6.922;2023-05-07T03:39:54;15.00;89.30
53254;DHT22;39148;53.332;6.922;2023-05-07T03:42:19;15.10;89.50
53254;DHT22;39148;53.332;6.922;2023-05-07T03:47:11;15.10;88.10
53254;DHT22;39148;53.332;6.922;2023-05-07T03:49:39;15.10;89.50
53254;DHT22;39148;53.332;6.922;2023-05-07T03:52:05;14.90;89.00
53254;DHT22;39148;53.332;6.922;2023-05-07T03:54:31;15.00;87.40
53254;DHT22;39148;53.332;6.922;2023-05-07T03:56:57;14.90;89.50
53254;DHT22;39148;53.332;6.922;2023-05-07T04:01:49;14.80;87.70
53254;DHT22;39148;53.332;6.922;2023-05-07T04:04:15;15.00;89.30
53254;DHT22;39148;53.332;6.922;2023-05-07T04:06:41;14.90;87.40
53254;DHT22;39148;53.332;6.922;2023-05-07T04:09:07;14.90;89.40
53254;DHT22;39148;53.332;6.922;2023-05-07T04:13:59;14.80;89.00
53254;DHT22;39148;53.332;6.922;2023-05-07T04:16:24;14.80;88.20
53254;DHT22;39148;53.332;6.922;2023-05-07T04:21:17;14.80;87.50
53254;DHT22;39148;53.332;6.922;2023-05-07T04:23:43;14.80;89.50
53254;DHT22;39148;53.332;6.922;2023-05-07T04:31:02;14.80;89.50
53254;DHT22;39148;53.332;6.922;2023-05-07T04:33:28;14.80;89.60
53254;DHT22;39148;53.332;6.922;2023-05-07T04:43:12;14.80;89.00
53254;DHT22;39148;53.332;6.922;2023-05-07T04:50:33;14.70;89.20
53254;DHT22;39148;53.332;6.922;2023-05-07T04:57:52;14.80;89.60
53254;DHT22;39148;53.332;6.922;2023-05-07T05:00:18;14.80;88.60
53254;DHT22;39148;53.332;6.922;2023-05-07T05:02:45;14.70;89.60
53254;DHT22;39148;53.332;6.922;2023-05-07T05:07:37;14.80;88.50
53254;DHT22;39148;53.332;6.922;2023-05-07T05:10:04;14.70;87.10
53254;DHT22;39148;53.332;6.922;2023-05-07T05:17:23;14.70;88.20
53254;DHT22;39148;53.332;6.922;2023-05-07T05:19:49;14.60;89.60
53254;DHT22;39148;53.332;6.922;2023-05-07T05:24:41;14.60;88.40
53254;DHT22;39148;53.332;6.922;2023-05-07T05:27:06;14.60;89.10
53254;DHT22;39148;53.332;6.922;2023-05-07T05:34:24;14.60;88.20
53254;DHT22;39148;53.332;6.922;2023-05-07T05:36:50;14.60;88.60
53254;DHT22;39148;53.332;6.922;2023-05-07T05:39:17;14.70;87.70
53254;DHT22;39148;53.332;6.922;2023-05-07T05:44:09;14.50;87.40
53254;DHT22;39148;53.332;6.922;2023-05-07T05:51:27;14.60;87.50
53254;DHT22;39148;53.332;6.922;2023-05-07T05:53:52;14.50;89.70
53254;DHT22;39148;53.332;6.922;2023-05-07T05:56:18;14.60;87.40
53254;DHT22;39148;53.332;6.922;2023-05-07T06:01:10;14.50;89.50
53254;DHT22;39148;53.332;6.922;2023-05-07T06:06:03;14.50;88.60
53254;DHT22;39148;53.332;6.922;2023-05-07T06:08:29;14.50;87.60
53254;DHT22;39148;53.332;6.922;2023-05-07T06:10:55;14.50;89.10
53254;DHT22;39148;53.332;6.922;2023-05-07T06:13:21;14.40;89.70
53254;DHT22;39148;53.332;6.922;2023-05-07T06:15:49;14.40;89.70
53254;DHT22;39148;53.332;6.922;2023-05-07T06:18:14;14.60;89.80
53254;DHT22;39148;53.332;6.922;2023-05-07T06:27:58;14.50;87.90
53254;DHT22;39148;53.332;6.922;2023-05-07T06:30:24;14.30;89.40
53254;DHT22;39148;53.332;6.922;2023-05-07T06:32:49;14.30;89.70
53254;DHT22;39148;53.332;6.922;2023-05-07T06:37:41;14.40;87.80
53254;DHT22;39148;53.332;6.922;2023-05-07T06:40:10;14.40;87.30
53254;DHT22;39148;53.332;6.922;2023-05-07T06:45:03;14.40;87.30
53254;DHT22;39148;53.332;6.922;2023-05-07T06:49:55;14.40;87.70
53254;DHT22;39148;53.332;6.922;2023-05-07T06:52:21;14.40;89.70
53254;DHT22;39148;53.332;6.922;2023-05-07T06:54:47;14.40;89.80
53254;DHT22;39148;53.332;6.922;2023-05-07T06:59:38;14.40;88.20
53254;DHT22;39148;53.332;6.922;2023-05-07T07:04:30;14.40;87.60
53254;DHT22;39148;53.332;6.922;2023-05-07T07:09:22;14.30;87.10
53254;DHT22;39148;53.332;6.922;2023-05-07T07:16:40;14.40;89.50
53254;DHT22;39148;53.332;6.922;2023-05-07T07:19:06;14.30;89.80
53254;DHT22;39148;53.332;6.922;2023-05-07T07:21:32;14.40;89.90
53254;DHT22;39148;53.332;6.922;2023-05-07T07:23:57;14.20;89.80
53254;DHT22;39148;53.332;6.922;2023-05-07T07:26:23;14.20;89.80
53254;DHT22;39148;53.332;6.922;2023-05-07T07:31:15;14.10;87.70
53254;DHT22;39148;53.332;6.922;2023-05-07T07:33:41;14.30;89.60
53254;DHT22;39148;53.332;6.922;2023-05-07T07:38:33;14.20;89.80
53254;DHT22;39148;53.332;6.922;2023-05-07T07:45:53;14.10;89.80
53254;DHT22;39148;53.332;6.922;2023-05-07T07:50:45;14.10;89.30
53254;DHT22;39148;53.332;6.922;2023-05-07T07:53:13;14.40;88.90
53254;DHT22;39148;53.332;6.922;2023-05-07T07:55:39;14.10;89.60
53254;DHT22;39148;53.332;6.922;2023-05-07T07:58:05;14.10;89.50
53254;DHT22;39148;53.332;6.922;2023-05-07T08:07:50;14.30;90.00
53254;DHT22;39148;53.332;6.922;2023-05-07T08:12:48;14.40;88.00
53254;DHT22;39148;53.332;6.922;2023-05-07T08:20:07;14.10;89.80
53254;DHT22;39148;53.332;6.922;2023-05-07T08:22:37;14.20;88.80
53254;DHT22;39148;53.332;6.922;2023-05-07T08:25:03;14.30;87.90
53254;DHT22;39148;53.332;6.922;2023-05-07T08:27:29;14.10;88.30
53254;DHT22;39148;53.332;6.922;2023-05-07T08:32:21;14.20;88.00
53254;DHT22;39148;53.332;6.922;2023-05-07T08:34:47;14.20;87.90
53254;DHT22;39148;53.332;6.922;2023-05-07T08:39:39;14.30;89.30
53254;DHT22;39148;53.332;6.922;2023-05-07T08:42:06;14.20;89.80
53254;DHT22;39148;53.332;6.922;2023-05-07T08:44:34;14.30;90.00
53254;DHT22;39148;53.332;6.922;2023-05-07T08:47:06;14.20;87.90
53254;DHT22;39148;53.332;6.922;2023-05-07T08:49:33;14.20;89.90
53254;DHT22;39148;53.332;6.922;2023-05-07T08:54:26;14.20;89.70
53254;DHT22;39148;53.332;6.922;2023-05-07T08:59:17;14.20;88.40
53254;DHT22;39148;53.332;6.922;2023-05-07T09:06:35;14.10;89.80
53254;DHT22;39148;53.332;6.922;2023-05-07T09:11:30;14.10;89.90
53254;DHT22;39148;53.332;6.922;2023-05-07T09:13:57;14.10;87.20
53254;DHT22;39148;53.332;6.922;2023-05-07T09:16:25;14.10;89.80
53254;DHT22;39148;53.332;6.922;2023-05-07T09:18:52;14.30;88.40
53254;DHT22;39148;53.332;6.922;2023-05-07T09:21:19;14.30;87.70
53254;DHT22;39148;53.332;6.922;2023-05-07T09:23:49;14.20;87.80
53254;DHT22;39148;53.332;6.922;2023-05-07T09:28:42;14.20;87.10
53254;DHT22;39148;53.332;6.922;2023-05-07T09:31:09;14.20;87.70
53254;DHT22;39148;53.332;6.922;2023-05-07T09:36:05;14.20;86.50
53254;DHT22;39148;53.332;6.922;2023-05-07T09:38:32;14.40;88.20
53254;DHT22;39148;53.332;6.922;2023-05-07T09:41:12;14.10;87.40
53254;DHT22;39148;53.332;6.922;2023-05-07T09:43:39;14.30;87.80
53254;DHT22;39148;53.332;6.922;2023-05-07T09:46:29;14.30;86.60
53254;DHT22;39148;53.332;6.922;2023-05-07T09:48:58;14.40;89.90
53254;DHT22;39148;53.332;6.922;2023-05-07T09:51:29;14.30;87.80
53254;DHT22;39148;53.332;6.922;2023-05-07T09:53:56;14.30;87.80
53254;DHT22;39148;53.332;6.922;2023-05-07T09:56:22;14.20;88.60
53254;DHT22;39148;53.332;6.922;2023-05-07T09:58:51;14.40;88.50
53254;DHT22;39148;53.332;6.922;2023-05-07T10:01:18;14.20;87.70
53254;DHT22;39148;53.332;6.922;2023-05-07T10:03:49;14.30;89.80
53254;DHT22;39148;53.332;6.922;2023-05-07T10:06:15;14.30;89.40
53254;DHT22;39148;53.332;6.922;2023-05-07T10:08:43;14.40;88.20
53254;DHT22;39148;53.332;6.922;2023-05-07T10:13:36;14.40;88.10
53254;DHT22;39148;53.332;6.922;2023-05-07T10:16:04;14.40;89.70
53254;DHT22;39148;53.332;6.922;2023-05-07T10:18:31;14.10;87.80
53254;DHT22;39148;53.332;6.922;2023-05-07T10:21:07;14.40;89.70
53254;DHT22;39148;53.332;6.922;2023-05-07T10:23:33;14.20;87.10
53254;DHT22;39148;53.332;6.922;2023-05-07T10:26:03;14.40;87.60
53254;DHT22;39148;53.332;6.922;2023-05-07T10:28:32;14.40;87.60
53254;DHT22;39148;53.332;6.922;2023-05-07T10:31:18;14.50;89.70
53254;DHT22;39148;53.332;6.922;2023-05-07T10:33:49;14.50;87.60
53254;DHT22;39148;53.332;6.922;2023-05-07T10:36:17;14.40;88.70
53254;DHT22;39148;53.332;6.922;2023-05-07T10:38:43;14.40;87.70
53254;DHT22;39148;53.332;6.922;2023-05-07T10:41:09;14.50;89.20
53254;DHT22;39148;53.332;6.922;2023-05-07T10:43:40;14.50;86.40
53254;DHT22;39148;53.332;6.922;2023-05-07T10:46:16;14.50;88.20
53254;DHT22;39148;53.332;6.922;2023-05-07T10:51:28;14.60;89.00
53254;DHT22;39148;53.332;6.922;2023-05-07T10:56:40;14.60;86.30
53254;DHT22;39148;53.332;6.922;2023-05-07T11:01:57;14.50;88.50
53254;DHT22;39148;53.332;6.922;2023-05-07T11:04:23;14.60;87.60
53254;DHT22;39148;53.332;6.922;2023-05-07T11:15:07;14.70;86.20
53254;DHT22;39148;53.332;6.922;2023-05-07T11:17:34;14.60;88.10
53254;DHT22;39148;53.332;6.922;2023-05-07T11:20:02;14.70;87.30
53254;DHT22;39148;53.332;6.922;2023-05-07T11:24:59;14.90;87.60
53254;DHT22;39148;53.332;6.922;2023-05-07T11:27:29;14.80;86.10
53254;DHT22;39148;53.332;6.922;2023-05-07T11:29:55;14.80;87.20
53254;DHT22;39148;53.332;6.922;2023-05-07T11:32:29;14.80;86.00
53254;DHT22;39148;53.332;6.922;2023-05-07T11:34:56;14.80;86.60
53254;DHT22;39148;53.332;6.922;2023-05-07T11:37:22;14.80;87.10
53254;DHT22;39148;53.332;6.922;2023-05-07T11:39:49;15.00;87.50
53254;DHT22;39148;53.332;6.922;2023-05-07T11:42:32;14.90;85.80
53254;DHT22;39148;53.332;6.922;2023-05-07T11:44:58;15.00;87.30
53254;DHT22;39148;53.332;6.922;2023-05-07T11:47:24;15.00;88.90
53254;DHT22;39148;53.332;6.922;2023-05-07T11:49:54;15.00;85.80
53254;DHT22;39148;53.332;6.922;2023-05-07T11:52:22;15.00;86.90
53254;DHT22;39148;53.332;6.922;2023-05-07T11:54:58;15.10;85.80
53254;DHT22;39148;53.332;6.922;2023-05-07T11:57:24;15.10;86.90
53254;DHT22;39148;53.332;6.922;2023-05-07T11:59:57;15.10;85.80
53254;DHT22;39148;53.332;6.922;2023-05-07T12:02:23;15.10;88.80
53254;DHT22;39148;53.332;6.922;2023-05-07T12:04:51;15.10;88.40
53254;DHT22;39148;53.332;6.922;2023-05-07T12:07:17;15.00;86.40
53254;DHT22;39148;53.332;6.922;2023-05-07T12:09:44;15.10;88.80
53254;DHT22;39148;53.332;6.922;2023-05-07T12:12:11;15.10;87.30
53254;DHT22;39148;53.332;6.922;2023-05-07T12:14:44;15.20;85.50
53254;DHT22;39148;53.332;6.922;2023-05-07T12:17:11;15.30;88.60
53254;DHT22;39148;53.332;6.922;2023-05-07T12:19:39;15.20;86.60
53254;DHT22;39148;53.332;6.922;2023-05-07T12:22:05;15.20;86.00
53254;DHT22;39148;53.332;6.922;2023-05-07T12:24:46;15.30;85.50
53254;DHT22;39148;53.332;6.922;2023-05-07T12:27:13;15.30;87.60
53254;DHT22;39148;53.332;6.922;2023-05-07T12:29:39;15.20;87.80
53254;DHT22;39148;53.332;6.922;2023-05-07T12:32:06;15.40;86.10
53254;DHT22;39148;53.332;6.922;2023-05-07T12:34:32;15.50;88.10
53254;DHT22;39148;53.332;6.922;2023-05-07T12:37:02;15.50;86.60
53254;DHT22;39148;53.332;6.922;2023-05-07T12:41:56;15.50;86.50
53254;DHT22;39148;53.332;6.922;2023-05-07T12:44:23;15.60;86.60
53254;DHT22;39148;53.332;6.922;2023-05-07T12:46:49;15.60;87.10
53254;DHT22;39148;53.332;6.922;2023-05-07T12:49:16;15.50;85.80
53254;DHT22;39148;53.332;6.922;2023-05-07T12:51:43;15.50;86.60
53254;DHT22;39148;53.332;6.922;2023-05-07T12:54:09;15.60;87.30
53254;DHT22;39148;53.332;6.922;2023-05-07T12:56:37;15.70;88.00
53254;DHT22;39148;53.332;6.922;2023-05-07T12:59:03;15.60;87.80
53254;DHT22;39148;53.332;6.922;2023-05-07T13:01:30;15.70;87.60
53254;DHT22;39148;53.332;6.922;2023-05-07T13:04:01;15.80;87.00
53254;DHT22;39148;53.332;6.922;2023-05-07T13:16:12;15.90;86.50
53254;DHT22;39148;53.332;6.922;2023-05-07T13:18:39;15.90;86.20
53254;DHT22;39148;53.332;6.922;2023-05-07T13:23:31;16.00;86.60
53254;DHT22;39148;53.332;6.922;2023-05-07T13:25:57;16.00;88.20
53254;DHT22;39148;53.332;6.922;2023-05-07T13:28:24;16.10;88.20
53254;DHT22;39148;53.332;6.922;2023-05-07T13:30:50;16.10;85.90
53254;DHT22;39148;53.332;6.922;2023-05-07T13:33:17;16.00;85.30
53254;DHT22;39148;53.332;6.922;2023-05-07T13:35:43;16.20;87.60
53254;DHT22;39148;53.332;6.922;2023-05-07T13:38:09;16.10;85.60
53254;DHT22;39148;53.332;6.922;2023-05-07T13:40:35;16.10;87.20
53254;DHT22;39148;53.332;6.922;2023-05-07T13:43:01;16.20;87.80
53254;DHT22;39148;53.332;6.922;2023-05-07T13:45:30;16.20;87.50
53254;DHT22;39148;53.332;6.922;2023-05-07T13:50:22;16.40;88.00
53254;DHT22;39148;53.332;6.922;2023-05-07T13:52:48;16.30;85.30
53254;DHT22;39148;53.332;6.922;2023-05-07T13:55:23;16.40;84.70
53254;DHT22;39148;53.332;6.922;2023-05-07T13:57:56;16.40;85.90
53254;DHT22;39148;53.332;6.922;2023-05-07T14:02:48;16.40;85.40
53254;DHT22;39148;53.332;6.922;2023-05-07T14:14:59;16.70;87.80
53254;DHT22;39148;53.332;6.922;2023-05-07T14:17:25;16.70;85.40
53254;DHT22;39148;53.332;6.922;2023-05-07T14:22:22;16.70;85.60
53254;DHT22;39148;53.332;6.922;2023-05-07T14:24:48;16.90;87.70
53254;DHT22;39148;53.332;6.922;2023-05-07T14:27:15;16.80;86.10
53254;DHT22;39148;53.332;6.922;2023-05-07T14:32:08;17.00;86.10
53254;DHT22;39148;53.332;6.922;2023-05-07T14:37:00;17.00;87.50
53254;DHT22;39148;53.332;6.922;2023-05-07T14:46:46;17.20;87.40
53254;DHT22;39148;53.332;6.922;2023-05-07T14:51:46;17.20;86.80
53254;DHT22;39148;53.332;6.922;2023-05-07T14:54:13;17.30;87.30
53254;DHT22;39148;53.332;6.922;2023-05-07T14:56:39;17.20;84.60
53254;DHT22;39148;53.332;6.922;2023-05-07T15:01:31;17.40;87.30
53254;DHT22;39148;53.332;6.922;2023-05-07T15:11:15;17.40;86.70
53254;DHT22;39148;53.332;6.922;2023-05-07T15:13:43;17.60;87.20
53254;DHT22;39148;53.332;6.922;2023-05-07T15:16:09;17.60;87.10
53254;DHT22;39148;53.332;6.922;2023-05-07T15:18:35;17.70;87.20
53254;DHT22;39148;53.332;6.922;2023-05-07T15:21:00;17.60;87.10
53254;DHT22;39148;53.332;6.922;2023-05-07T15:23:26;17.70;87.10
53254;DHT22;39148;53.332;6.922;2023-05-07T15:25:52;17.80;86.50
53254;DHT22;39148;53.332;6.922;2023-05-07T15:28:19;17.80;87.10
53254;DHT22;39148;53.332;6.922;2023-05-07T15:35:37;17.90;86.90
53254;DHT22;39148;53.332;6.922;2023-05-07T15:40:29;18.00;87.00
53254;DHT22;39148;53.332;6.922;2023-05-07T15:42:55;17.90;86.90
53254;DHT22;39148;53.332;6.922;2023-05-07T15:45:25;18.00;86.90
53254;DHT22;39148;53.332;6.922;2023-05-07T15:47:50;18.10;87.00
53254;DHT22;39148;53.332;6.922;2023-05-07T15:50:16;17.90;86.60
53254;DHT22;39148;53.332;6.922;2023-05-07T15:52:42;18.00;86.70
53254;DHT22;39148;53.332;6.922;2023-05-07T15:55:07;18.00;84.30
53254;DHT22;39148;53.332;6.922;2023-05-07T15:57:34;18.10;86.60
53254;DHT22;39148;53.332;6.922;2023-05-07T16:00:01;18.00;86.50
53254;DHT22;39148;53.332;6.922;2023-05-07T16:04:54;18.20;86.50
53254;DHT22;39148;53.332;6.922;2023-05-07T16:09:46;18.30;86.60
53254;DHT22;39148;53.332;6.922;2023-05-07T16:12:12;18.20;86.50
53254;DHT22;39148;53.332;6.922;2023-05-07T16:17:04;18.40;86.60
53254;DHT22;39148;53.332;6.922;2023-05-07T16:19:30;18.90;86.70
53254;DHT22;39148;53.332;6.922;2023-05-07T16:21:55;18.20;86.40
53254;DHT22;39148;53.332;6.922;2023-05-07T16:26:48;18.40;86.40
53254;DHT22;39148;53.332;6.922;2023-05-07T16:31:40;18.40;83.80
53254;DHT22;39148;53.332;6.922;2023-05-07T16:34:06;18.50;86.70
53254;DHT22;39148;53.332;6.922;2023-05-07T16:38:58;18.50;83.90
53254;DHT22;39148;53.332;6.922;2023-05-07T16:41:23;18.40;84.60
53254;DHT22;39148;53.332;6.922;2023-05-07T16:43:49;18.60;86.50
53254;DHT22;39148;53.332;6.922;2023-05-07T16:46:15;18.40;86.30
53254;DHT22;39148;53.332;6.922;2023-05-07T16:51:07;18.50;86.30
53254;DHT22;39148;53.332;6.922;2023-05-07T16:53:33;18.50;84.00
53254;DHT22;39148;53.332;6.922;2023-05-07T16:56:06;18.50;84.20
53254;DHT22;39148;53.332;6.922;2023-05-07T16:58:31;18.60;86.40
53254;DHT22;39148;53.332;6.922;2023-05-07T17:01:00;18.70;86.30
53254;DHT22;39148;53.332;6.922;2023-05-07T17:03:27;18.50;86.20
53254;DHT22;39148;53.332;6.922;2023-05-07T17:08:20;18.70;83.60
53254;DHT22;39148;53.332;6.922;2023-05-07T17:13:12;18.50;84.20
53254;DHT22;39148;53.332;6.922;2023-05-07T17:15:38;18.60;86.20
53254;DHT22;39148;53.332;6.922;2023-05-07T17:18:06;18.60;84.70
53254;DHT22;39148;53.332;6.922;2023-05-07T17:20:32;18.60;85.00
53254;DHT22;39148;53.332;6.922;2023-05-07T17:22:58;18.50;83.80
53254;DHT22;39148;53.332;6.922;2023-05-07T17:25:24;18.50;86.00
53254;DHT22;39148;53.332;6.922;2023-05-07T17:27:50;18.70;86.10
53254;DHT22;39148;53.332;6.922;2023-05-07T17:30:15;18.70;84.40
53254;DHT22;39148;53.332;6.922;2023-05-07T17:35:07;18.70;86.20
53254;DHT22;39148;53.332;6.922;2023-05-07T17:37:33;18.60;86.20
53254;DHT22;39148;53.332;6.922;2023-05-07T17:40:00;18.60;83.50
53254;DHT22;39148;53.332;6.922;2023-05-07T17:42:26;18.80;86.20
53254;DHT22;39148;53.332;6.922;2023-05-07T17:44:51;18.60;86.00
53254;DHT22;39148;53.332;6.922;2023-05-07T17:47:17;18.60;86.00
53254;DHT22;39148;53.332;6.922;2023-05-07T17:49:43;18.60;86.10
53254;DHT22;39148;53.332;6.922;2023-05-07T17:54:35;18.70;86.20
53254;DHT22;39148;53.332;6.922;2023-05-07T17:57:00;18.60;85.20
53254;DHT22;39148;53.332;6.922;2023-05-07T17:59:27;18.60;86.00
53254;DHT22;39148;53.332;6.922;2023-05-07T18:01:53;18.60;86.00
53254;DHT22;39148;53.332;6.922;2023-05-07T18:04:18;18.70;86.10
53254;DHT22;39148;53.332;6.922;2023-05-07T18:06:46;18.70;86.20
53254;DHT22;39148;53.332;6.922;2023-05-07T18:09:12;18.60;86.00
53254;DHT22;39148;53.332;6.922;2023-05-07T18:11:38;18.60;83.90
53254;DHT22;39148;53.332;6.922;2023-05-07T18:14:03;18.70;86.10
53254;DHT22;39148;53.332;6.922;2023-05-07T18:16:29;18.70;85.70
53254;DHT22;39148;53.332;6.922;2023-05-07T18:18:55;18.70;86.10
53254;DHT22;39148;53.332;6.922;2023-05-07T18:23:47;18.70;86.10
53254;DHT22;39148;53.332;6.922;2023-05-07T18:26:13;18.50;85.90
53254;DHT22;39148;53.332;6.922;2023-05-07T18:28:39;18.50;84.40
53254;DHT22;39148;53.332;6.922;2023-05-07T18:31:05;18.70;86.10
53254;DHT22;39148;53.332;6.922;2023-05-07T18:33:31;18.60;85.30
53254;DHT22;39148;53.332;6.922;2023-05-07T18:35:57;18.50;86.00
53254;DHT22;39148;53.332;6.922;2023-05-07T18:45:41;18.60;86.10
53254;DHT22;39148;53.332;6.922;2023-05-07T18:48:06;18.70;86.20
53254;DHT22;39148;53.332;6.922;2023-05-07T18:55:26;18.60;86.10
53254;DHT22;39148;53.332;6.922;2023-05-07T18:57:51;18.60;86.20
53254;DHT22;39148;53.332;6.922;2023-05-07T19:00:18;18.60;86.20
53254;DHT22;39148;53.332;6.922;2023-05-07T19:02:43;18.40;86.10
53254;DHT22;39148;53.332;6.922;2023-05-07T19:05:09;18.60;86.20
53254;DHT22;39148;53.332;6.922;2023-05-07T19:07:35;18.60;86.10
53254;DHT22;39148;53.332;6.922;2023-05-07T19:12:27;18.60;86.20
53254;DHT22;39148;53.332;6.922;2023-05-07T19:14:53;18.50;84.10
53254;DHT22;39148;53.332;6.922;2023-05-07T19:17:19;18.50;86.10
53254;DHT22;39148;53.332;6.922;2023-05-07T19:19:47;18.50;86.00
53254;DHT22;39148;53.332;6.922;2023-05-07T19:22:16;18.40;85.10
53254;DHT22;39148;53.332;6.922;2023-05-07T19:24:42;18.60;86.20
53254;DHT22;39148;53.332;6.922;2023-05-07T19:27:07;18.40;86.10
53254;DHT22;39148;53.332;6.922;2023-05-07T19:29:33;18.50;86.20
53254;DHT22;39148;53.332;6.922;2023-05-07T19:34:25;18.40;86.10
53254;DHT22;39148;53.332;6.922;2023-05-07T19:39:17;18.50;86.20
53254;DHT22;39148;53.332;6.922;2023-05-07T19:41:43;18.50;84.50
53254;DHT22;39148;53.332;6.922;2023-05-07T19:44:09;18.50;86.30
53254;DHT22;39148;53.332;6.922;2023-05-07T19:46:35;18.40;86.20
53254;DHT22;39148;53.332;6.922;2023-05-07T19:49:04;18.40;86.30
53254;DHT22;39148;53.332;6.922;2023-05-07T19:51:30;18.30;86.20
53254;DHT22;39148;53.332;6.922;2023-05-07T19:53:57;18.30;86.30
53254;DHT22;39148;53.332;6.922;2023-05-07T19:56:24;18.40;86.30
53254;DHT22;39148;53.332;6.922;2023-05-07T19:58:50;18.30;86.30
53254;DHT22;39148;53.332;6.922;2023-05-07T20:01:17;18.40;86.30
53254;DHT22;39148;53.332;6.922;2023-05-07T20:03:43;18.30;83.50
53254;DHT22;39148;53.332;6.922;2023-05-07T20:06:09;18.40;86.30
53254;DHT22;39148;53.332;6.922;2023-05-07T20:08:35;18.10;86.20
53254;DHT22;39148;53.332;6.922;2023-05-07T20:11:01;18.20;86.30
53254;DHT22;39148;53.332;6.922;2023-05-07T20:13:26;18.10;86.30
53254;DHT22;39148;53.332;6.922;2023-05-07T20:15:59;18.20;86.40
53254;DHT22;39148;53.332;6.922;2023-05-07T20:18:26;18.20;86.40
53254;DHT22;39148;53.332;6.922;2023-05-07T20:20:52;18.30;86.40
53254;DHT22;39148;53.332;6.922;2023-05-07T20:23:17;18.00;86.40
53254;DHT22;39148;53.332;6.922;2023-05-07T20:25:43;18.20;86.50
53254;DHT22;39148;53.332;6.922;2023-05-07T20:30:35;18.10;86.50
53254;DHT22;39148;53.332;6.922;2023-05-07T20:33:00;18.10;86.10
53254;DHT22;39148;53.332;6.922;2023-05-07T20:35:29;18.00;84.90
53254;DHT22;39148;53.332;6.922;2023-05-07T20:37:55;18.10;86.10
53254;DHT22;39148;53.332;6.922;2023-05-07T20:42:47;18.00;86.50
53254;DHT22;39148;53.332;6.922;2023-05-07T20:45:13;18.00;85.60
53254;DHT22;39148;53.332;6.922;2023-05-07T20:47:38;18.00;86.60